sensor_id;sensor_type;location;lat;lon;timestamp;P1;durP1;ratioP1;P2;durP2;ratioP2
10801;SDS011;5453;50.852;7.102;2023-07-31T00:00:29;3.08;;;1.80;;
10801;SDS011;5453;50.852;7.102;2023-07-31T00:03:02;2.47;;;1.17;;
10801;SDS011;5453;50.852;7.102;2023-07-31T00:05:34;2.47;;;1.20;;
10801;SDS011;5453;50.852;7.102;2023-07-31T00:08:06;2.80;;;1.38;;
10801;SDS011;5453;50.852;7.102;2023-07-31T00:10:40;4.30;;;2.20;;
10801;SDS011;5453;50.852;7.102;2023-07-31T00:13:16;3.95;;;1.48;;
10801;SDS011;5453;50.852;7.102;2023-07-31T00:15:48;1.55;;;1.25;;
10801;SDS011;5453;50.852;7.102;2023-07-31T00:18:20;2.63;;;1.40;;
10801;SDS011;5453;50.852;7.102;2023-07-31T00:20:53;3.63;;;1.15;;
10801;SDS011;5453;50.852;7.102;2023-07-31T00:23:28;2.67;;;1.30;;
10801;SDS011;5453;50.852;7.102;2023-07-31T00:26:02;2.85;;;1.30;;
10801;SDS011;5453;50.852;7.102;2023-07-31T00:28:34;2.92;;;1.38;;
10801;SDS011;5453;50.852;7.102;2023-07-31T00:31:06;2.90;;;1.63;;
10801;SDS011;5453;50.852;7.102;2023-07-31T00:33:42;4.32;;;1.73;;
10801;SDS011;5453;50.852;7.102;2023-07-31T00:36:14;2.80;;;1.45;;
10801;SDS011;5453;50.852;7.102;2023-07-31T00:38:48;3.58;;;1.42;;
10801;SDS011;5453;50.852;7.102;2023-07-31T00:41:21;3.92;;;1.70;;
10801;SDS011;5453;50.852;7.102;2023-07-31T00:43:54;3.60;;;1.55;;
10801;SDS011;5453;50.852;7.102;2023-07-31T00:46:26;4.43;;;1.52;;
10801;SDS011;5453;50.852;7.102;2023-07-31T00:49:00;3.78;;;1.50;;
10801;SDS011;5453;50.852;7.102;2023-07-31T00:51:32;3.40;;;1.33;;
10801;SDS011;5453;50.852;7.102;2023-07-31T00:54:05;3.70;;;1.52;;
10801;SDS011;5453;50.852;7.102;2023-07-31T00:56:39;3.40;;;1.80;;
10801;SDS011;5453;50.852;7.102;2023-07-31T00:59:13;2.92;;;1.48;;
10801;SDS011;5453;50.852;7.102;2023-07-31T01:01:45;2.47;;;1.30;;
10801;SDS011;5453;50.852;7.102;2023-07-31T01:04:18;2.35;;;1.45;;
10801;SDS011;5453;50.852;7.102;2023-07-31T01:06:53;2.80;;;1.45;;
10801;SDS011;5453;50.852;7.102;2023-07-31T01:09:37;2.15;;;1.30;;
10801;SDS011;5453;50.852;7.102;2023-07-31T01:12:16;3.53;;;1.23;;
10801;SDS011;5453;50.852;7.102;2023-07-31T01:14:52;3.47;;;1.30;;
10801;SDS011;5453;50.852;7.102;2023-07-31T01:17:38;2.75;;;1.30;;
10801;SDS011;5453;50.852;7.102;2023-07-31T01:20:11;4.68;;;1.92;;
10801;SDS011;5453;50.852;7.102;2023-07-31T01:26:02;2.80;;;1.20;;
10801;SDS011;5453;50.852;7.102;2023-07-31T01:28:46;3.15;;;1.30;;
10801;SDS011;5453;50.852;7.102;2023-07-31T01:31:27;2.72;;;1.63;;
10801;SDS011;5453;50.852;7.102;2023-07-31T01:34:01;3.35;;;1.50;;
10801;SDS011;5453;50.852;7.102;2023-07-31T01:36:34;3.08;;;1.38;;
10801;SDS011;5453;50.852;7.102;2023-07-31T01:39:07;4.07;;;1.77;;
10801;SDS011;5453;50.852;7.102;2023-07-31T01:41:44;3.10;;;1.20;;
10801;SDS011;5453;50.852;7.102;2023-07-31T01:44:16;2.40;;;1.10;;
10801;SDS011;5453;50.852;7.102;2023-07-31T01:46:49;2.03;;;1.23;;
10801;SDS011;5453;50.852;7.102;2023-07-31T01:49:21;2.38;;;1.42;;
10801;SDS011;5453;50.852;7.102;2023-07-31T01:51:54;2.78;;;1.30;;
10801;SDS011;5453;50.852;7.102;2023-07-31T01:54:26;3.67;;;1.50;;
10801;SDS011;5453;50.852;7.102;2023-07-31T01:57:00;2.97;;;1.25;;
10801;SDS011;5453;50.852;7.102;2023-07-31T01:59:33;3.25;;;1.42;;
10801;SDS011;5453;50.852;7.102;2023-07-31T02:02:05;4.40;;;1.42;;
10801;SDS011;5453;50.852;7.102;2023-07-31T02:04:38;2.72;;;1.20;;
10801;SDS011;5453;50.852;7.102;2023-07-31T02:07:12;1.83;;;0.95;;
10801;SDS011;5453;50.852;7.102;2023-07-31T02:09:45;1.73;;;1.13;;
10801;SDS011;5453;50.852;7.102;2023-07-31T02:12:19;1.95;;;0.95;;
10801;SDS011;5453;50.852;7.102;2023-07-31T02:14:52;2.00;;;1.27;;
10801;SDS011;5453;50.852;7.102;2023-07-31T02:17:24;3.15;;;1.45;;
10801;SDS011;5453;50.852;7.102;2023-07-31T02:19:56;2.55;;;1.33;;
10801;SDS011;5453;50.852;7.102;2023-07-31T02:22:29;2.28;;;1.33;;
10801;SDS011;5453;50.852;7.102;2023-07-31T02:25:01;2.75;;;1.38;;
10801;SDS011;5453;50.852;7.102;2023-07-31T02:27:35;2.85;;;1.27;;
10801;SDS011;5453;50.852;7.102;2023-07-31T02:30:08;2.47;;;1.10;;
10801;SDS011;5453;50.852;7.102;2023-07-31T02:32:42;2.67;;;1.33;;
10801;SDS011;5453;50.852;7.102;2023-07-31T02:35:14;2.42;;;1.27;;
10801;SDS011;5453;50.852;7.102;2023-07-31T02:37:51;4.28;;;1.60;;
10801;SDS011;5453;50.852;7.102;2023-07-31T02:40:24;1.98;;;1.30;;
10801;SDS011;5453;50.852;7.102;2023-07-31T02:42:57;2.28;;;1.23;;
10801;SDS011;5453;50.852;7.102;2023-07-31T02:45:30;2.40;;;1.20;;
10801;SDS011;5453;50.852;7.102;2023-07-31T02:48:02;2.05;;;1.33;;
10801;SDS011;5453;50.852;7.102;2023-07-31T02:50:35;3.33;;;1.25;;
10801;SDS011;5453;50.852;7.102;2023-07-31T02:53:08;3.05;;;1.35;;
10801;SDS011;5453;50.852;7.102;2023-07-31T02:55:43;2.95;;;1.25;;
10801;SDS011;5453;50.852;7.102;2023-07-31T02:58:17;2.47;;;1.15;;
10801;SDS011;5453;50.852;7.102;2023-07-31T03:00:49;1.95;;;1.23;;
10801;SDS011;5453;50.852;7.102;2023-07-31T03:03:22;3.03;;;1.35;;
10801;SDS011;5453;50.852;7.102;2023-07-31T03:05:54;3.97;;;1.60;;
10801;SDS011;5453;50.852;7.102;2023-07-31T03:08:28;3.30;;;1.30;;
10801;SDS011;5453;50.852;7.102;2023-07-31T03:11:00;2.95;;;1.42;;
10801;SDS011;5453;50.852;7.102;2023-07-31T03:13:34;3.53;;;1.38;;
10801;SDS011;5453;50.852;7.102;2023-07-31T03:16:06;2.72;;;1.35;;
10801;SDS011;5453;50.852;7.102;2023-07-31T03:18:39;4.22;;;1.80;;
10801;SDS011;5453;50.852;7.102;2023-07-31T03:21:12;2.38;;;1.33;;
10801;SDS011;5453;50.852;7.102;2023-07-31T03:23:49;3.10;;;1.48;;
10801;SDS011;5453;50.852;7.102;2023-07-31T03:26:21;3.53;;;1.38;;
10801;SDS011;5453;50.852;7.102;2023-07-31T03:28:55;2.28;;;1.23;;
10801;SDS011;5453;50.852;7.102;2023-07-31T03:31:27;2.53;;;1.40;;
10801;SDS011;5453;50.852;7.102;2023-07-31T03:34:03;3.38;;;1.65;;
10801;SDS011;5453;50.852;7.102;2023-07-31T03:36:35;3.33;;;1.52;;
10801;SDS011;5453;50.852;7.102;2023-07-31T03:39:08;2.50;;;1.30;;
10801;SDS011;5453;50.852;7.102;2023-07-31T03:41:43;3.20;;;1.33;;
10801;SDS011;5453;50.852;7.102;2023-07-31T03:44:17;3.60;;;1.60;;
10801;SDS011;5453;50.852;7.102;2023-07-31T03:46:50;3.95;;;1.67;;
10801;SDS011;5453;50.852;7.102;2023-07-31T03:49:23;3.75;;;1.75;;
10801;SDS011;5453;50.852;7.102;2023-07-31T03:51:55;3.85;;;1.40;;
10801;SDS011;5453;50.852;7.102;2023-07-31T03:54:28;3.28;;;1.52;;
10801;SDS011;5453;50.852;7.102;2023-07-31T03:57:00;3.13;;;1.50;;
10801;SDS011;5453;50.852;7.102;2023-07-31T03:59:34;2.45;;;1.42;;
10801;SDS011;5453;50.852;7.102;2023-07-31T04:02:08;3.97;;;1.65;;
10801;SDS011;5453;50.852;7.102;2023-07-31T04:04:40;4.25;;;1.95;;
10801;SDS011;5453;50.852;7.102;2023-07-31T04:07:13;3.55;;;1.60;;
10801;SDS011;5453;50.852;7.102;2023-07-31T04:09:45;4.00;;;1.80;;
10801;SDS011;5453;50.852;7.102;2023-07-31T04:12:18;3.10;;;1.42;;
10801;SDS011;5453;50.852;7.102;2023-07-31T04:14:52;4.22;;;1.40;;
10801;SDS011;5453;50.852;7.102;2023-07-31T04:17:24;3.20;;;1.40;;
10801;SDS011;5453;50.852;7.102;2023-07-31T04:19:56;4.47;;;1.40;;
10801;SDS011;5453;50.852;7.102;2023-07-31T04:22:29;3.10;;;1.20;;
10801;SDS011;5453;50.852;7.102;2023-07-31T04:25:01;2.72;;;1.55;;
10801;SDS011;5453;50.852;7.102;2023-07-31T04:27:34;4.15;;;1.45;;
10801;SDS011;5453;50.852;7.102;2023-07-31T04:30:08;4.82;;;1.77;;
10801;SDS011;5453;50.852;7.102;2023-07-31T04:32:41;2.85;;;1.42;;
10801;SDS011;5453;50.852;7.102;2023-07-31T04:35:13;3.45;;;1.42;;
10801;SDS011;5453;50.852;7.102;2023-07-31T04:37:48;3.83;;;1.73;;
10801;SDS011;5453;50.852;7.102;2023-07-31T04:40:21;2.75;;;1.23;;
10801;SDS011;5453;50.852;7.102;2023-07-31T04:42:53;3.10;;;1.48;;
10801;SDS011;5453;50.852;7.102;2023-07-31T04:45:27;2.72;;;1.30;;
10801;SDS011;5453;50.852;7.102;2023-07-31T04:47:59;2.78;;;1.70;;
10801;SDS011;5453;50.852;7.102;2023-07-31T04:50:31;2.63;;;1.60;;
10801;SDS011;5453;50.852;7.102;2023-07-31T04:53:04;4.15;;;1.83;;
10801;SDS011;5453;50.852;7.102;2023-07-31T04:55:36;3.22;;;1.67;;
10801;SDS011;5453;50.852;7.102;2023-07-31T04:58:12;3.28;;;1.77;;
10801;SDS011;5453;50.852;7.102;2023-07-31T05:00:45;3.03;;;1.30;;
10801;SDS011;5453;50.852;7.102;2023-07-31T05:03:18;2.70;;;1.35;;
10801;SDS011;5453;50.852;7.102;2023-07-31T05:05:50;4.28;;;1.50;;
10801;SDS011;5453;50.852;7.102;2023-07-31T05:08:22;2.67;;;1.40;;
10801;SDS011;5453;50.852;7.102;2023-07-31T05:10:55;3.03;;;1.40;;
10801;SDS011;5453;50.852;7.102;2023-07-31T05:13:27;3.35;;;1.63;;
10801;SDS011;5453;50.852;7.102;2023-07-31T05:16:01;4.13;;;1.52;;
10801;SDS011;5453;50.852;7.102;2023-07-31T05:18:34;3.47;;;1.73;;
10801;SDS011;5453;50.852;7.102;2023-07-31T05:21:06;2.38;;;1.70;;
10801;SDS011;5453;50.852;7.102;2023-07-31T05:23:38;3.03;;;1.52;;
10801;SDS011;5453;50.852;7.102;2023-07-31T05:26:11;3.25;;;1.70;;
10801;SDS011;5453;50.852;7.102;2023-07-31T05:28:43;3.08;;;1.63;;
10801;SDS011;5453;50.852;7.102;2023-07-31T05:31:17;3.58;;;1.77;;
10801;SDS011;5453;50.852;7.102;2023-07-31T05:33:54;3.45;;;1.63;;
10801;SDS011;5453;50.852;7.102;2023-07-31T05:36:26;4.57;;;1.55;;
10801;SDS011;5453;50.852;7.102;2023-07-31T05:38:58;2.80;;;1.60;;
10801;SDS011;5453;50.852;7.102;2023-07-31T05:41:36;5.05;;;1.63;;
10801;SDS011;5453;50.852;7.102;2023-07-31T05:44:08;3.80;;;1.85;;
10801;SDS011;5453;50.852;7.102;2023-07-31T05:46:42;2.50;;;1.40;;
10801;SDS011;5453;50.852;7.102;2023-07-31T05:49:14;3.15;;;1.80;;
10801;SDS011;5453;50.852;7.102;2023-07-31T05:51:47;3.17;;;1.65;;
10801;SDS011;5453;50.852;7.102;2023-07-31T05:54:19;2.65;;;1.55;;
10801;SDS011;5453;50.852;7.102;2023-07-31T05:56:51;2.88;;;1.50;;
10801;SDS011;5453;50.852;7.102;2023-07-31T05:59:24;2.97;;;1.48;;
10801;SDS011;5453;50.852;7.102;2023-07-31T06:01:57;3.17;;;1.50;;
10801;SDS011;5453;50.852;7.102;2023-07-31T06:04:30;5.35;;;2.22;;
10801;SDS011;5453;50.852;7.102;2023-07-31T06:07:03;3.65;;;1.80;;
10801;SDS011;5453;50.852;7.102;2023-07-31T06:09:35;3.17;;;1.63;;
10801;SDS011;5453;50.852;7.102;2023-07-31T06:12:08;2.88;;;1.67;;
10801;SDS011;5453;50.852;7.102;2023-07-31T06:14:40;3.65;;;1.70;;
10801;SDS011;5453;50.852;7.102;2023-07-31T06:17:14;4.68;;;1.88;;
10801;SDS011;5453;50.852;7.102;2023-07-31T06:19:46;3.42;;;1.95;;
10801;SDS011;5453;50.852;7.102;2023-07-31T06:22:22;2.63;;;1.80;;
10801;SDS011;5453;50.852;7.102;2023-07-31T06:24:54;3.85;;;1.83;;
10801;SDS011;5453;50.852;7.102;2023-07-31T06:27:27;3.85;;;1.77;;
10801;SDS011;5453;50.852;7.102;2023-07-31T06:30:00;3.25;;;1.60;;
10801;SDS011;5453;50.852;7.102;2023-07-31T06:32:34;3.50;;;1.73;;
10801;SDS011;5453;50.852;7.102;2023-07-31T06:35:06;3.03;;;1.63;;
10801;SDS011;5453;50.852;7.102;2023-07-31T06:37:39;5.35;;;2.03;;
10801;SDS011;5453;50.852;7.102;2023-07-31T06:40:17;3.80;;;1.73;;
10801;SDS011;5453;50.852;7.102;2023-07-31T06:42:49;3.70;;;1.73;;
10801;SDS011;5453;50.852;7.102;2023-07-31T06:45:21;2.92;;;1.58;;
10801;SDS011;5453;50.852;7.102;2023-07-31T06:47:55;3.30;;;1.50;;
10801;SDS011;5453;50.852;7.102;2023-07-31T06:50:31;4.80;;;2.15;;
10801;SDS011;5453;50.852;7.102;2023-07-31T06:53:04;4.00;;;1.98;;
10801;SDS011;5453;50.852;7.102;2023-07-31T06:55:36;4.07;;;1.77;;
10801;SDS011;5453;50.852;7.102;2023-07-31T06:58:09;4.05;;;2.05;;
10801;SDS011;5453;50.852;7.102;2023-07-31T07:00:41;4.00;;;2.10;;
10801;SDS011;5453;50.852;7.102;2023-07-31T07:03:16;4.63;;;1.75;;
10801;SDS011;5453;50.852;7.102;2023-07-31T07:05:50;3.92;;;1.70;;
10801;SDS011;5453;50.852;7.102;2023-07-31T07:08:23;3.85;;;1.73;;
10801;SDS011;5453;50.852;7.102;2023-07-31T07:10:56;3.30;;;1.67;;
10801;SDS011;5453;50.852;7.102;2023-07-31T07:13:28;3.97;;;1.88;;
10801;SDS011;5453;50.852;7.102;2023-07-31T07:16:01;4.68;;;1.58;;
10801;SDS011;5453;50.852;7.102;2023-07-31T07:18:34;3.72;;;2.25;;
10801;SDS011;5453;50.852;7.102;2023-07-31T07:21:07;3.10;;;1.63;;
10801;SDS011;5453;50.852;7.102;2023-07-31T07:23:39;3.45;;;1.80;;
10801;SDS011;5453;50.852;7.102;2023-07-31T07:26:14;3.60;;;1.77;;
10801;SDS011;5453;50.852;7.102;2023-07-31T07:28:47;4.65;;;1.65;;
10801;SDS011;5453;50.852;7.102;2023-07-31T07:31:19;4.18;;;1.42;;
10801;SDS011;5453;50.852;7.102;2023-07-31T07:33:53;4.82;;;2.35;;
10801;SDS011;5453;50.852;7.102;2023-07-31T07:36:28;3.83;;;1.90;;
10801;SDS011;5453;50.852;7.102;2023-07-31T07:39:02;3.05;;;1.65;;
10801;SDS011;5453;50.852;7.102;2023-07-31T07:41:35;2.55;;;1.55;;
10801;SDS011;5453;50.852;7.102;2023-07-31T07:44:10;3.53;;;1.88;;
10801;SDS011;5453;50.852;7.102;2023-07-31T07:46:43;4.03;;;1.88;;
10801;SDS011;5453;50.852;7.102;2023-07-31T07:49:17;4.28;;;2.10;;
10801;SDS011;5453;50.852;7.102;2023-07-31T07:51:52;4.68;;;1.83;;
10801;SDS011;5453;50.852;7.102;2023-07-31T07:54:24;3.92;;;1.90;;
10801;SDS011;5453;50.852;7.102;2023-07-31T07:56:57;4.20;;;2.05;;
10801;SDS011;5453;50.852;7.102;2023-07-31T07:59:30;4.30;;;1.83;;
10801;SDS011;5453;50.852;7.102;2023-07-31T08:02:03;4.65;;;1.98;;
10801;SDS011;5453;50.852;7.102;2023-07-31T08:04:37;5.18;;;1.95;;
10801;SDS011;5453;50.852;7.102;2023-07-31T08:07:10;3.92;;;2.25;;
10801;SDS011;5453;50.852;7.102;2023-07-31T08:09:43;4.53;;;2.10;;
10801;SDS011;5453;50.852;7.102;2023-07-31T08:12:15;3.97;;;1.75;;
10801;SDS011;5453;50.852;7.102;2023-07-31T08:14:48;2.25;;;1.58;;
10801;SDS011;5453;50.852;7.102;2023-07-31T08:17:20;4.22;;;1.90;;
10801;SDS011;5453;50.852;7.102;2023-07-31T08:19:54;4.13;;;1.92;;
10801;SDS011;5453;50.852;7.102;2023-07-31T08:22:31;3.90;;;2.13;;
10801;SDS011;5453;50.852;7.102;2023-07-31T08:25:04;3.70;;;1.73;;
10801;SDS011;5453;50.852;7.102;2023-07-31T08:27:38;4.15;;;1.90;;
10801;SDS011;5453;50.852;7.102;2023-07-31T08:30:11;4.90;;;2.08;;
10801;SDS011;5453;50.852;7.102;2023-07-31T08:32:44;4.07;;;1.90;;
10801;SDS011;5453;50.852;7.102;2023-07-31T08:35:18;5.78;;;1.90;;
10801;SDS011;5453;50.852;7.102;2023-07-31T08:37:50;3.42;;;1.83;;
10801;SDS011;5453;50.852;7.102;2023-07-31T08:40:25;5.97;;;2.15;;
10801;SDS011;5453;50.852;7.102;2023-07-31T08:42:58;4.03;;;1.77;;
10801;SDS011;5453;50.852;7.102;2023-07-31T08:45:32;3.20;;;1.55;;
10801;SDS011;5453;50.852;7.102;2023-07-31T08:48:05;4.20;;;2.25;;
10801;SDS011;5453;50.852;7.102;2023-07-31T08:50:39;4.60;;;1.85;;
10801;SDS011;5453;50.852;7.102;2023-07-31T08:53:11;3.28;;;1.63;;
10801;SDS011;5453;50.852;7.102;2023-07-31T08:55:44;3.63;;;1.65;;
10801;SDS011;5453;50.852;7.102;2023-07-31T08:58:21;3.75;;;1.38;;
10801;SDS011;5453;50.852;7.102;2023-07-31T09:00:54;4.38;;;1.80;;
10801;SDS011;5453;50.852;7.102;2023-07-31T09:03:28;3.38;;;1.63;;
10801;SDS011;5453;50.852;7.102;2023-07-31T09:06:08;3.70;;;1.90;;
10801;SDS011;5453;50.852;7.102;2023-07-31T09:08:45;3.47;;;1.70;;
10801;SDS011;5453;50.852;7.102;2023-07-31T09:11:17;4.30;;;1.90;;
10801;SDS011;5453;50.852;7.102;2023-07-31T09:13:54;3.60;;;1.80;;
10801;SDS011;5453;50.852;7.102;2023-07-31T09:16:35;3.80;;;1.92;;
10801;SDS011;5453;50.852;7.102;2023-07-31T09:19:08;3.28;;;1.92;;
10801;SDS011;5453;50.852;7.102;2023-07-31T09:21:48;3.28;;;1.55;;
10801;SDS011;5453;50.852;7.102;2023-07-31T09:24:27;4.28;;;1.75;;
10801;SDS011;5453;50.852;7.102;2023-07-31T09:27:01;3.28;;;1.52;;
10801;SDS011;5453;50.852;7.102;2023-07-31T09:29:34;4.57;;;2.10;;
10801;SDS011;5453;50.852;7.102;2023-07-31T09:32:06;4.25;;;1.92;;
10801;SDS011;5453;50.852;7.102;2023-07-31T09:34:48;3.70;;;1.70;;
10801;SDS011;5453;50.852;7.102;2023-07-31T09:37:22;2.78;;;1.65;;
10801;SDS011;5453;50.852;7.102;2023-07-31T09:39:54;2.25;;;1.40;;
10801;SDS011;5453;50.852;7.102;2023-07-31T09:45:08;2.90;;;1.50;;
10801;SDS011;5453;50.852;7.102;2023-07-31T09:47:45;4.35;;;1.60;;
10801;SDS011;5453;50.852;7.102;2023-07-31T09:50:19;3.53;;;1.60;;
10801;SDS011;5453;50.852;7.102;2023-07-31T09:52:54;3.47;;;1.85;;
10801;SDS011;5453;50.852;7.102;2023-07-31T09:55:27;3.70;;;1.63;;
10801;SDS011;5453;50.852;7.102;2023-07-31T09:58:03;2.95;;;1.40;;
10801;SDS011;5453;50.852;7.102;2023-07-31T10:00:40;2.38;;;1.48;;
10801;SDS011;5453;50.852;7.102;2023-07-31T10:03:13;4.53;;;2.28;;
10801;SDS011;5453;50.852;7.102;2023-07-31T10:05:50;3.88;;;1.67;;
10801;SDS011;5453;50.852;7.102;2023-07-31T10:08:29;3.05;;;1.42;;
10801;SDS011;5453;50.852;7.102;2023-07-31T10:11:04;4.05;;;1.63;;
10801;SDS011;5453;50.852;7.102;2023-07-31T10:13:37;3.45;;;1.73;;
10801;SDS011;5453;50.852;7.102;2023-07-31T10:16:10;3.95;;;2.10;;
10801;SDS011;5453;50.852;7.102;2023-07-31T10:18:46;3.08;;;1.80;;
10801;SDS011;5453;50.852;7.102;2023-07-31T10:21:22;4.45;;;1.83;;
10801;SDS011;5453;50.852;7.102;2023-07-31T10:23:55;3.95;;;2.00;;
10801;SDS011;5453;50.852;7.102;2023-07-31T10:29:04;4.20;;;1.90;;
10801;SDS011;5453;50.852;7.102;2023-07-31T10:31:38;4.60;;;2.22;;
10801;SDS011;5453;50.852;7.102;2023-07-31T10:34:11;3.28;;;1.98;;
10801;SDS011;5453;50.852;7.102;2023-07-31T10:36:45;4.53;;;2.03;;
10801;SDS011;5453;50.852;7.102;2023-07-31T10:39:34;4.22;;;2.10;;
10801;SDS011;5453;50.852;7.102;2023-07-31T10:42:11;4.75;;;1.90;;
10801;SDS011;5453;50.852;7.102;2023-07-31T10:44:46;3.83;;;1.95;;
10801;SDS011;5453;50.852;7.102;2023-07-31T10:47:18;3.05;;;1.70;;
10801;SDS011;5453;50.852;7.102;2023-07-31T10:49:51;2.70;;;1.70;;
10801;SDS011;5453;50.852;7.102;2023-07-31T10:52:23;2.95;;;1.42;;
10801;SDS011;5453;50.852;7.102;2023-07-31T10:58:00;2.72;;;1.45;;
10801;SDS011;5453;50.852;7.102;2023-07-31T11:00:42;2.42;;;1.15;;
10801;SDS011;5453;50.852;7.102;2023-07-31T11:03:16;2.65;;;1.50;;
10801;SDS011;5453;50.852;7.102;2023-07-31T11:05:52;2.60;;;1.50;;
10801;SDS011;5453;50.852;7.102;2023-07-31T11:08:33;3.45;;;1.48;;
10801;SDS011;5453;50.852;7.102;2023-07-31T11:11:09;2.95;;;1.23;;
10801;SDS011;5453;50.852;7.102;2023-07-31T11:13:44;2.40;;;1.35;;
10801;SDS011;5453;50.852;7.102;2023-07-31T11:16:20;1.98;;;1.13;;
10801;SDS011;5453;50.852;7.102;2023-07-31T11:18:58;1.80;;;1.05;;
10801;SDS011;5453;50.852;7.102;2023-07-31T11:21:30;2.13;;;0.95;;
10801;SDS011;5453;50.852;7.102;2023-07-31T11:24:03;2.58;;;1.08;;
10801;SDS011;5453;50.852;7.102;2023-07-31T11:26:41;1.67;;;1.10;;
10801;SDS011;5453;50.852;7.102;2023-07-31T11:29:21;2.58;;;1.05;;
10801;SDS011;5453;50.852;7.102;2023-07-31T11:31:59;2.05;;;0.90;;
10801;SDS011;5453;50.852;7.102;2023-07-31T11:34:50;1.60;;;0.93;;
10801;SDS011;5453;50.852;7.102;2023-07-31T11:37:23;1.35;;;0.80;;
10801;SDS011;5453;50.852;7.102;2023-07-31T11:39:59;1.45;;;0.93;;
10801;SDS011;5453;50.852;7.102;2023-07-31T11:42:33;1.45;;;0.90;;
10801;SDS011;5453;50.852;7.102;2023-07-31T11:45:06;1.05;;;0.85;;
10801;SDS011;5453;50.852;7.102;2023-07-31T11:47:40;1.75;;;0.80;;
10801;SDS011;5453;50.852;7.102;2023-07-31T11:50:12;5.13;;;0.85;;
10801;SDS011;5453;50.852;7.102;2023-07-31T11:52:48;1.00;;;0.90;;
10801;SDS011;5453;50.852;7.102;2023-07-31T11:55:24;1.52;;;0.77;;
10801;SDS011;5453;50.852;7.102;2023-07-31T11:57:59;2.38;;;1.05;;
10801;SDS011;5453;50.852;7.102;2023-07-31T12:03:07;1.67;;;0.90;;
10801;SDS011;5453;50.852;7.102;2023-07-31T12:05:40;2.78;;;1.08;;
10801;SDS011;5453;50.852;7.102;2023-07-31T12:08:12;1.33;;;0.73;;
10801;SDS011;5453;50.852;7.102;2023-07-31T12:10:46;1.83;;;0.82;;
10801;SDS011;5453;50.852;7.102;2023-07-31T12:13:23;1.65;;;0.88;;
10801;SDS011;5453;50.852;7.102;2023-07-31T12:15:57;1.77;;;0.90;;
10801;SDS011;5453;50.852;7.102;2023-07-31T12:18:33;2.83;;;1.02;;
10801;SDS011;5453;50.852;7.102;2023-07-31T12:21:08;1.88;;;0.70;;
10801;SDS011;5453;50.852;7.102;2023-07-31T12:23:43;1.30;;;0.82;;
10801;SDS011;5453;50.852;7.102;2023-07-31T12:26:16;1.73;;;0.77;;
10801;SDS011;5453;50.852;7.102;2023-07-31T12:28:50;1.08;;;0.80;;
10801;SDS011;5453;50.852;7.102;2023-07-31T12:31:27;1.05;;;0.60;;
10801;SDS011;5453;50.852;7.102;2023-07-31T12:34:00;1.25;;;0.70;;
10801;SDS011;5453;50.852;7.102;2023-07-31T12:36:33;1.02;;;0.77;;
10801;SDS011;5453;50.852;7.102;2023-07-31T12:39:09;1.00;;;0.70;;
10801;SDS011;5453;50.852;7.102;2023-07-31T12:41:42;1.92;;;1.00;;
10801;SDS011;5453;50.852;7.102;2023-07-31T12:44:15;1.40;;;0.90;;
10801;SDS011;5453;50.852;7.102;2023-07-31T12:46:51;1.10;;;0.90;;
10801;SDS011;5453;50.852;7.102;2023-07-31T12:49:23;1.33;;;1.00;;
10801;SDS011;5453;50.852;7.102;2023-07-31T12:51:55;3.17;;;1.20;;
10801;SDS011;5453;50.852;7.102;2023-07-31T12:54:28;2.67;;;1.15;;
10801;SDS011;5453;50.852;7.102;2023-07-31T12:57:00;1.73;;;1.20;;
10801;SDS011;5453;50.852;7.102;2023-07-31T12:59:34;1.75;;;1.10;;
10801;SDS011;5453;50.852;7.102;2023-07-31T13:02:06;2.20;;;1.02;;
10801;SDS011;5453;50.852;7.102;2023-07-31T13:04:39;2.28;;;1.27;;
10801;SDS011;5453;50.852;7.102;2023-07-31T13:07:14;2.38;;;1.17;;
10801;SDS011;5453;50.852;7.102;2023-07-31T13:09:47;2.13;;;1.25;;
10801;SDS011;5453;50.852;7.102;2023-07-31T13:12:19;3.33;;;1.42;;
10801;SDS011;5453;50.852;7.102;2023-07-31T13:14:53;3.15;;;1.40;;
10801;SDS011;5453;50.852;7.102;2023-07-31T13:17:25;2.75;;;1.33;;
10801;SDS011;5453;50.852;7.102;2023-07-31T13:19:58;4.30;;;1.30;;
10801;SDS011;5453;50.852;7.102;2023-07-31T13:22:30;2.20;;;1.55;;
10801;SDS011;5453;50.852;7.102;2023-07-31T13:25:03;3.05;;;1.70;;
10801;SDS011;5453;50.852;7.102;2023-07-31T13:27:36;3.53;;;1.77;;
10801;SDS011;5453;50.852;7.102;2023-07-31T13:30:10;2.83;;;1.63;;
10801;SDS011;5453;50.852;7.102;2023-07-31T13:32:42;2.70;;;1.65;;
10801;SDS011;5453;50.852;7.102;2023-07-31T13:35:15;2.95;;;1.95;;
10801;SDS011;5453;50.852;7.102;2023-07-31T13:37:47;3.10;;;1.65;;
10801;SDS011;5453;50.852;7.102;2023-07-31T13:40:20;2.90;;;1.52;;
10801;SDS011;5453;50.852;7.102;2023-07-31T13:42:56;3.83;;;1.60;;
10801;SDS011;5453;50.852;7.102;2023-07-31T13:45:30;3.03;;;1.63;;
10801;SDS011;5453;50.852;7.102;2023-07-31T13:48:03;3.03;;;1.42;;
10801;SDS011;5453;50.852;7.102;2023-07-31T13:50:35;3.45;;;1.75;;
10801;SDS011;5453;50.852;7.102;2023-07-31T13:53:11;3.63;;;1.55;;
10801;SDS011;5453;50.852;7.102;2023-07-31T13:55:43;2.80;;;1.58;;
10801;SDS011;5453;50.852;7.102;2023-07-31T13:58:16;2.75;;;1.70;;
10801;SDS011;5453;50.852;7.102;2023-07-31T14:00:50;2.30;;;1.33;;
10801;SDS011;5453;50.852;7.102;2023-07-31T14:03:22;2.15;;;1.42;;
10801;SDS011;5453;50.852;7.102;2023-07-31T14:05:55;2.50;;;1.25;;
10801;SDS011;5453;50.852;7.102;2023-07-31T14:08:27;2.20;;;1.40;;
10801;SDS011;5453;50.852;7.102;2023-07-31T14:11:00;1.40;;;1.20;;
10801;SDS011;5453;50.852;7.102;2023-07-31T14:13:33;2.55;;;1.05;;
10801;SDS011;5453;50.852;7.102;2023-07-31T14:16:06;4.07;;;1.58;;
10801;SDS011;5453;50.852;7.102;2023-07-31T14:18:39;2.33;;;1.25;;
10801;SDS011;5453;50.852;7.102;2023-07-31T14:21:14;2.05;;;1.33;;
10801;SDS011;5453;50.852;7.102;2023-07-31T14:23:49;2.28;;;1.23;;
10801;SDS011;5453;50.852;7.102;2023-07-31T14:26:21;2.10;;;1.23;;
10801;SDS011;5453;50.852;7.102;2023-07-31T14:28:57;2.10;;;1.27;;
10801;SDS011;5453;50.852;7.102;2023-07-31T14:31:31;2.60;;;1.60;;
10801;SDS011;5453;50.852;7.102;2023-07-31T14:34:04;2.60;;;1.83;;
10801;SDS011;5453;50.852;7.102;2023-07-31T14:36:37;1.85;;;1.25;;
10801;SDS011;5453;50.852;7.102;2023-07-31T14:39:12;2.47;;;1.45;;
10801;SDS011;5453;50.852;7.102;2023-07-31T14:41:44;1.80;;;1.08;;
10801;SDS011;5453;50.852;7.102;2023-07-31T14:44:18;2.50;;;1.30;;
10801;SDS011;5453;50.852;7.102;2023-07-31T14:46:51;2.63;;;1.33;;
10801;SDS011;5453;50.852;7.102;2023-07-31T14:49:24;8.32;;;2.95;;
10801;SDS011;5453;50.852;7.102;2023-07-31T14:51:57;7.60;;;3.70;;
10801;SDS011;5453;50.852;7.102;2023-07-31T14:54:30;5.25;;;2.85;;
10801;SDS011;5453;50.852;7.102;2023-07-31T14:57:02;5.72;;;2.80;;
10801;SDS011;5453;50.852;7.102;2023-07-31T14:59:35;3.50;;;2.30;;
10801;SDS011;5453;50.852;7.102;2023-07-31T15:02:09;3.47;;;2.28;;
10801;SDS011;5453;50.852;7.102;2023-07-31T15:04:41;5.00;;;3.20;;
10801;SDS011;5453;50.852;7.102;2023-07-31T15:07:17;10.60;;;5.57;;
10801;SDS011;5453;50.852;7.102;2023-07-31T15:09:49;9.90;;;4.95;;
10801;SDS011;5453;50.852;7.102;2023-07-31T15:12:23;4.70;;;2.10;;
10801;SDS011;5453;50.852;7.102;2023-07-31T15:14:57;3.28;;;2.20;;
10801;SDS011;5453;50.852;7.102;2023-07-31T15:17:30;3.15;;;1.83;;
10801;SDS011;5453;50.852;7.102;2023-07-31T15:20:03;2.65;;;1.50;;
10801;SDS011;5453;50.852;7.102;2023-07-31T15:22:37;2.15;;;1.52;;
10801;SDS011;5453;50.852;7.102;2023-07-31T15:25:09;2.30;;;1.33;;
10801;SDS011;5453;50.852;7.102;2023-07-31T15:27:41;2.42;;;1.40;;
10801;SDS011;5453;50.852;7.102;2023-07-31T15:30:14;2.22;;;1.38;;
10801;SDS011;5453;50.852;7.102;2023-07-31T15:32:48;2.15;;;1.40;;
10801;SDS011;5453;50.852;7.102;2023-07-31T15:35:20;2.17;;;1.35;;
10801;SDS011;5453;50.852;7.102;2023-07-31T15:37:53;2.83;;;1.45;;
10801;SDS011;5453;50.852;7.102;2023-07-31T15:40:25;3.50;;;1.50;;
10801;SDS011;5453;50.852;7.102;2023-07-31T15:42:58;2.80;;;1.40;;
10801;SDS011;5453;50.852;7.102;2023-07-31T15:45:32;2.47;;;1.60;;
10801;SDS011;5453;50.852;7.102;2023-07-31T15:48:06;2.35;;;1.35;;
10801;SDS011;5453;50.852;7.102;2023-07-31T15:50:38;2.67;;;1.58;;
10801;SDS011;5453;50.852;7.102;2023-07-31T15:53:14;2.17;;;1.30;;